createdAt,value
2023-01-10T00:00:34.976Z,5.83
2023-01-10T00:03:02.368Z,5.65
2023-01-10T00:05:28.942Z,5.72
2023-01-10T00:07:55.447Z,5.60
2023-01-10T00:10:22.175Z,5.58
2023-01-10T00:13:07.393Z,5.63
2023-01-10T00:15:34.986Z,5.65
2023-01-10T00:18:01.631Z,5.57
2023-01-10T00:20:28.111Z,5.58
2023-01-10T00:22:54.767Z,5.56
2023-01-10T00:25:21.532Z,5.52
2023-01-10T00:27:57.853Z,5.51
2023-01-10T00:30:24.528Z,5.41
2023-01-10T00:32:50.942Z,5.45
2023-01-10T00:35:17.416Z,5.32
2023-01-10T00:37:43.882Z,5.44
2023-01-10T00:40:11.839Z,5.43
2023-01-10T00:42:56.936Z,5.33
2023-01-10T00:45:25.155Z,5.11
2023-01-10T00:47:52.236Z,5.28
2023-01-10T00:50:18.777Z,5.20
2023-01-10T00:52:45.203Z,5.25
2023-01-10T00:55:11.738Z,5.31
2023-01-10T00:57:38.396Z,5.34
2023-01-10T01:00:07.742Z,5.41
2023-01-10T01:02:34.457Z,5.44
2023-01-10T01:05:00.966Z,5.37
2023-01-10T01:07:27.511Z,5.45
2023-01-10T01:10:12.585Z,5.43
2023-01-10T01:12:39.052Z,5.48
2023-01-10T01:15:06.005Z,5.51
2023-01-10T01:17:32.665Z,5.49
2023-01-10T01:19:59.042Z,5.61
2023-01-10T01:22:25.566Z,5.63
2023-01-10T01:24:52.101Z,5.60
2023-01-10T01:27:18.622Z,5.56
2023-01-10T01:29:45.089Z,5.59
2023-01-10T01:32:12.263Z,5.62
2023-01-10T01:34:38.859Z,5.59
2023-01-10T01:37:05.336Z,5.63
2023-01-10T01:39:31.773Z,5.65
2023-01-10T01:41:58.351Z,5.59
2023-01-10T01:44:29.796Z,5.60
2023-01-10T01:47:05.705Z,5.60
2023-01-10T01:49:38.237Z,5.46
2023-01-10T01:52:15.416Z,5.43
2023-01-10T01:54:42.518Z,5.38
2023-01-10T01:57:17.421Z,5.40
2023-01-10T01:59:46.776Z,5.52
2023-01-10T02:02:19.301Z,5.45
2023-01-10T02:04:59.231Z,5.48
2023-01-10T02:07:31.006Z,5.61
2023-01-10T02:10:12.772Z,5.48
2023-01-10T02:12:40.363Z,5.45
2023-01-10T02:15:07.379Z,5.43
2023-01-10T02:17:33.886Z,5.50
2023-01-10T02:20:05.024Z,5.59
2023-01-10T02:22:59.723Z,5.58
2023-01-10T02:25:53.739Z,5.60
2023-01-10T02:28:41.242Z,5.59
2023-01-10T02:31:31.539Z,5.59
2023-01-10T02:34:11.856Z,5.53
2023-01-10T02:37:07.796Z,5.54
2023-01-10T02:39:40.213Z,5.56
2023-01-10T02:42:18.280Z,5.59
2023-01-10T02:45:05.803Z,5.53
2023-01-10T02:47:40.607Z,5.42
2023-01-10T02:50:25.211Z,5.45
2023-01-10T02:52:52.375Z,5.45
2023-01-10T02:55:22.433Z,5.47
2023-01-10T02:58:12.052Z,5.47
2023-01-10T03:00:51.361Z,5.44
2023-01-10T03:03:20.462Z,5.43
2023-01-10T03:06:07.643Z,5.52
2023-01-10T03:08:40.766Z,5.51
2023-01-10T03:11:10.020Z,5.57
2023-01-10T03:14:01.583Z,5.46
2023-01-10T03:16:32.273Z,5.53
2023-01-10T03:19:03.751Z,5.53
2023-01-10T03:21:32.603Z,5.53
2023-01-10T03:24:05.763Z,5.52
2023-01-10T03:27:03.092Z,5.43
2023-01-10T03:29:37.019Z,5.57
2023-01-10T03:32:08.309Z,5.54
2023-01-10T03:34:35.798Z,5.63
2023-01-10T03:37:14.116Z,5.58
2023-01-10T03:39:49.593Z,5.65
2023-01-10T03:42:29.588Z,5.56
2023-01-10T03:45:06.480Z,5.63
2023-01-10T03:47:41.328Z,5.57
2023-01-10T03:50:15.112Z,5.59
2023-01-10T03:52:42.719Z,5.60
2023-01-10T03:55:11.748Z,5.66
2023-01-10T03:57:42.166Z,5.67
2023-01-10T04:00:10.440Z,5.67
2023-01-10T04:02:36.959Z,5.63
2023-01-10T04:05:04.557Z,5.61
2023-01-10T04:07:31.429Z,5.58
2023-01-10T04:09:58.050Z,5.54
2023-01-10T04:12:24.627Z,5.59
2023-01-10T04:14:51.075Z,5.58
2023-01-10T04:17:18.114Z,5.59
2023-01-10T04:19:45.241Z,5.59
2023-01-10T04:22:12.265Z,5.60
2023-01-10T04:24:40.230Z,5.54
2023-01-10T04:27:06.732Z,5.61
2023-01-10T04:29:33.161Z,5.69
2023-01-10T04:31:59.616Z,5.69
2023-01-10T04:34:26.130Z,5.72
2023-01-10T04:36:52.771Z,5.70
2023-01-10T04:39:19.203Z,5.71
2023-01-10T04:41:45.799Z,5.76
2023-01-10T04:44:12.835Z,5.66
2023-01-10T04:46:39.421Z,5.71
2023-01-10T04:49:06.289Z,5.73
2023-01-10T04:51:32.969Z,5.77
2023-01-10T04:53:59.644Z,5.78
2023-01-10T04:56:26.129Z,5.79
2023-01-10T04:58:54.124Z,5.82
2023-01-10T05:01:23.394Z,5.79
2023-01-10T05:03:51.003Z,5.86
2023-01-10T05:06:18.425Z,5.83
2023-01-10T05:08:45.659Z,5.84
2023-01-10T05:11:12.800Z,5.89
2023-01-10T05:13:39.755Z,5.85
2023-01-10T05:16:06.684Z,5.93
2023-01-10T05:18:33.473Z,5.88
2023-01-10T05:21:11.184Z,5.89
2023-01-10T05:23:38.677Z,5.94
2023-01-10T05:26:20.002Z,5.82
2023-01-10T05:28:47.007Z,5.80
2023-01-10T05:31:16.658Z,5.75
2023-01-10T05:33:51.396Z,5.72
2023-01-10T05:36:19.036Z,5.69
2023-01-10T05:38:45.521Z,5.73
2023-01-10T05:41:12.083Z,5.70
2023-01-10T05:43:38.541Z,5.75
2023-01-10T05:46:05.055Z,5.77
2023-01-10T05:48:31.779Z,5.74
2023-01-10T05:50:58.176Z,5.73
2023-01-10T05:53:24.644Z,5.72
2023-01-10T05:55:59.440Z,5.69
2023-01-10T05:58:26.908Z,5.72
2023-01-10T06:00:55.512Z,5.70
2023-01-10T06:03:22.560Z,5.71
2023-01-10T06:05:49.316Z,5.67
2023-01-10T06:08:16.131Z,5.66
2023-01-10T06:10:43.229Z,5.59
2023-01-10T06:13:09.887Z,5.65
2023-01-10T06:15:36.608Z,5.59
2023-01-10T06:18:03.106Z,5.63
2023-01-10T06:20:29.538Z,5.63
2023-01-10T06:22:56.049Z,5.61
2023-01-10T06:25:22.585Z,5.63
2023-01-10T06:27:49.021Z,5.67
2023-01-10T06:30:15.688Z,5.66
2023-01-10T06:32:42.518Z,5.63
2023-01-10T06:35:09.626Z,5.60
2023-01-10T06:37:36.405Z,5.54
2023-01-10T06:40:03.690Z,5.55
2023-01-10T06:42:30.120Z,5.52
2023-01-10T06:44:56.592Z,5.50
2023-01-10T06:47:23.011Z,5.56
2023-01-10T06:49:49.401Z,5.53
2023-01-10T06:52:15.834Z,5.51
2023-01-10T06:54:42.289Z,5.51
2023-01-10T06:57:08.856Z,5.46
2023-01-10T06:59:35.331Z,5.52
2023-01-10T07:02:02.038Z,5.54
2023-01-10T07:04:28.531Z,5.53
2023-01-10T07:06:55.022Z,5.48
2023-01-10T07:09:21.481Z,5.49
2023-01-10T07:11:47.896Z,5.48
2023-01-10T07:14:14.336Z,5.38
2023-01-10T07:16:40.817Z,5.46
2023-01-10T07:19:07.277Z,5.44
2023-01-10T07:21:33.711Z,5.41
2023-01-10T07:24:02.486Z,5.34
2023-01-10T07:26:29.799Z,5.32
2023-01-10T07:28:56.330Z,5.32
2023-01-10T07:31:23.933Z,5.23
2023-01-10T07:33:54.120Z,5.22
2023-01-10T07:36:20.801Z,5.33
2023-01-10T07:38:47.287Z,5.32
2023-01-10T07:41:13.881Z,5.26
2023-01-10T07:43:40.294Z,5.33
2023-01-10T07:46:09.549Z,5.32
2023-01-10T07:48:36.783Z,5.39
2023-01-10T07:51:04.343Z,5.38
2023-01-10T07:53:31.386Z,5.36
2023-01-10T07:56:02.335Z,5.38
2023-01-10T07:58:29.546Z,5.39
2023-01-10T08:01:00.366Z,5.42
2023-01-10T08:03:27.568Z,5.41
2023-01-10T08:05:59.474Z,5.34
2023-01-10T08:08:26.226Z,5.33
2023-01-10T08:10:52.860Z,5.32
2023-01-10T08:13:19.631Z,5.29
2023-01-10T08:15:52.674Z,5.32
2023-01-10T08:18:21.154Z,5.32
2023-01-10T08:20:52.038Z,5.27
2023-01-10T08:23:19.944Z,5.33
2023-01-10T08:25:47.649Z,5.33
2023-01-10T08:28:15.018Z,5.40
2023-01-10T08:30:41.588Z,5.35
2023-01-10T08:33:09.976Z,5.43
2023-01-10T08:35:41.471Z,5.52
2023-01-10T08:38:09.351Z,5.53
2023-01-10T08:40:36.162Z,5.57
2023-01-10T08:43:06.047Z,5.44
2023-01-10T08:45:32.982Z,5.46
2023-01-10T08:47:59.511Z,5.56
2023-01-10T08:50:26.366Z,5.50
2023-01-10T08:52:52.840Z,5.54
2023-01-10T08:55:19.956Z,5.50
2023-01-10T08:57:46.495Z,5.61
2023-01-10T09:00:13.940Z,5.56
2023-01-10T09:02:41.084Z,5.52
2023-01-10T09:05:18.642Z,5.48
2023-01-10T09:07:52.505Z,5.52
2023-01-10T09:10:19.106Z,5.60
2023-01-10T09:12:59.654Z,5.66
2023-01-10T09:15:29.705Z,5.63
2023-01-10T09:17:57.968Z,5.51
2023-01-10T09:20:26.691Z,5.57
2023-01-10T09:22:53.239Z,5.56
2023-01-10T09:25:20.034Z,5.63
2023-01-10T09:27:46.758Z,5.63
2023-01-10T09:30:13.715Z,5.57
2023-01-10T09:32:40.215Z,5.63
2023-01-10T09:35:06.993Z,5.61
2023-01-10T09:37:34.612Z,5.52
2023-01-10T09:40:01.275Z,5.57
2023-01-10T09:42:55.961Z,5.47
2023-01-10T09:45:45.278Z,5.45
2023-01-10T09:48:37.966Z,5.52
2023-01-10T09:51:28.935Z,5.61
2023-01-10T09:54:10.732Z,5.65
2023-01-10T09:56:40.373Z,5.49
2023-01-10T09:59:13.442Z,5.47
2023-01-10T10:01:40.217Z,5.63
2023-01-10T10:04:35.475Z,5.61
2023-01-10T10:07:04.327Z,5.63
2023-01-10T10:09:35.364Z,5.47
2023-01-10T10:12:10.771Z,5.59
2023-01-10T10:14:55.871Z,5.51
2023-01-10T10:18:00.750Z,5.68
2023-01-10T10:21:03.058Z,5.61
2023-01-10T10:23:48.683Z,5.66
2023-01-10T10:26:28.132Z,5.46
2023-01-10T10:28:57.903Z,5.73
2023-01-10T10:32:21.451Z,5.74
2023-01-10T10:34:53.540Z,5.72
2023-01-10T10:37:52.444Z,5.65
2023-01-10T10:40:20.829Z,5.60
2023-01-10T10:42:50.968Z,5.76
2023-01-10T10:45:29.442Z,5.68
2023-01-10T10:48:00.532Z,5.71
2023-01-10T10:50:50.178Z,5.68
2023-01-10T10:53:18.822Z,5.72
2023-01-10T10:55:45.895Z,5.69
2023-01-10T10:58:14.623Z,5.65
2023-01-10T11:00:42.250Z,5.74
2023-01-10T11:03:45.786Z,5.68
2023-01-10T11:06:15.028Z,5.63
2023-01-10T11:08:45.016Z,5.63
2023-01-10T11:11:36.743Z,5.73
2023-01-10T11:14:05.619Z,5.67
2023-01-10T11:16:33.736Z,5.76
2023-01-10T11:19:22.173Z,5.72
2023-01-10T11:21:51.043Z,5.78
2023-01-10T11:24:22.969Z,5.76
2023-01-10T11:26:49.989Z,5.72
2023-01-10T11:29:33.061Z,5.83
2023-01-10T11:32:09.479Z,5.77
2023-01-10T11:34:37.752Z,5.79
2023-01-10T11:37:17.768Z,5.86
2023-01-10T11:39:44.554Z,5.88
2023-01-10T11:42:30.829Z,5.84
2023-01-10T11:45:26.955Z,5.79
2023-01-10T11:48:02.718Z,5.85
2023-01-10T11:50:32.356Z,5.94
2023-01-10T11:52:59.139Z,5.86
2023-01-10T11:55:31.385Z,5.93
2023-01-10T11:58:12.972Z,6.00
2023-01-10T12:00:48.414Z,5.97
2023-01-10T12:03:28.411Z,6.02
2023-01-10T12:06:01.612Z,6.07
2023-01-10T12:08:33.589Z,6.07
2023-01-10T12:11:35.913Z,6.13
2023-01-10T12:14:02.816Z,6.18
2023-01-10T12:16:34.687Z,6.18
2023-01-10T12:19:04.595Z,6.19
2023-01-10T12:21:41.622Z,6.15
2023-01-10T12:24:30.659Z,6.23
2023-01-10T12:26:57.749Z,6.24
2023-01-10T12:29:29.532Z,6.26
2023-01-10T12:31:58.432Z,6.26
2023-01-10T12:34:40.046Z,6.22
2023-01-10T12:37:21.259Z,6.22
2023-01-10T12:39:55.498Z,6.28
2023-01-10T12:42:58.051Z,6.27
2023-01-10T12:45:33.359Z,6.30
2023-01-10T12:48:15.583Z,6.26
2023-01-10T12:50:48.632Z,6.31
2023-01-10T12:53:28.438Z,6.29
2023-01-10T12:55:57.516Z,6.30
2023-01-10T12:58:43.183Z,6.35
2023-01-10T13:01:14.661Z,6.32
2023-01-10T13:03:42.887Z,6.32
2023-01-10T13:06:20.867Z,6.29
2023-01-10T13:08:48.212Z,6.39
2023-01-10T13:11:18.699Z,6.38
2023-01-10T13:13:59.442Z,6.37
2023-01-10T13:16:29.702Z,6.35
2023-01-10T13:19:04.535Z,6.37
2023-01-10T13:21:32.991Z,6.39
2023-01-10T13:24:08.004Z,6.41
2023-01-10T13:26:54.739Z,6.43
2023-01-10T13:29:29.080Z,6.46
2023-01-10T13:32:00.444Z,6.48
2023-01-10T13:34:33.456Z,6.54
2023-01-10T13:37:10.448Z,6.55
2023-01-10T13:39:40.256Z,6.53
2023-01-10T13:42:25.239Z,6.54
2023-01-10T13:45:00.551Z,6.57
2023-01-10T13:47:39.202Z,6.60
2023-01-10T13:50:44.161Z,6.56
2023-01-10T13:53:12.785Z,6.63
2023-01-10T13:55:39.169Z,6.62
2023-01-10T13:58:14.687Z,6.70
2023-01-10T14:01:10.604Z,6.69
2023-01-10T14:03:42.015Z,6.72
2023-01-10T14:06:17.012Z,6.70
2023-01-10T14:09:12.367Z,6.73
2023-01-10T14:11:44.829Z,6.77
2023-01-10T14:14:33.836Z,6.77
2023-01-10T14:17:24.888Z,6.77
2023-01-10T14:20:01.972Z,6.80
2023-01-10T14:22:38.222Z,6.74
2023-01-10T14:25:14.654Z,6.72
2023-01-10T14:27:48.020Z,6.61
2023-01-10T14:30:38.189Z,6.49
2023-01-10T14:33:15.342Z,6.43
2023-01-10T14:35:47.194Z,6.37
2023-01-10T14:38:23.480Z,6.31
2023-01-10T14:40:52.650Z,6.31
2023-01-10T14:43:23.721Z,6.24
2023-01-10T14:46:03.379Z,6.21
2023-01-10T14:48:35.160Z,6.23
2023-01-10T14:51:22.589Z,6.16
2023-01-10T14:54:10.878Z,6.17
2023-01-10T14:56:43.489Z,6.13
2023-01-10T14:59:30.717Z,6.12
2023-01-10T15:02:29.641Z,6.11
2023-01-10T15:04:59.913Z,6.08
2023-01-10T15:07:27.582Z,6.09
2023-01-10T15:09:58.051Z,6.05
2023-01-10T15:12:28.967Z,6.04
2023-01-10T15:15:05.353Z,6.04
2023-01-10T15:17:34.189Z,5.99
2023-01-10T15:20:01.309Z,5.96
2023-01-10T15:22:35.993Z,5.92
2023-01-10T15:25:18.736Z,5.89
2023-01-10T15:27:47.405Z,5.86
2023-01-10T15:30:30.901Z,5.89
2023-01-10T15:33:03.121Z,5.89
2023-01-10T15:35:36.135Z,5.82
2023-01-10T15:38:07.881Z,5.79
2023-01-10T15:40:37.650Z,5.78
2023-01-10T15:43:13.500Z,5.78
2023-01-10T15:45:41.731Z,5.72
2023-01-10T15:48:26.655Z,5.75
2023-01-10T15:50:59.786Z,5.69
2023-01-10T15:53:52.724Z,5.67
2023-01-10T15:56:32.032Z,5.65
2023-01-10T15:58:59.559Z,5.65
2023-01-10T16:01:28.693Z,5.67
2023-01-10T16:03:58.592Z,5.61
2023-01-10T16:06:36.761Z,5.63
2023-01-10T16:09:16.005Z,5.58
2023-01-10T16:12:11.449Z,5.56
2023-01-10T16:14:37.997Z,5.56
2023-01-10T16:17:05.577Z,5.54
2023-01-10T16:19:32.336Z,5.53
2023-01-10T16:21:59.772Z,5.48
2023-01-10T16:24:28.609Z,5.46
2023-01-10T16:26:57.127Z,5.50
2023-01-10T16:29:24.318Z,5.46
2023-01-10T16:31:52.335Z,5.42
2023-01-10T16:34:20.147Z,5.45
2023-01-10T16:36:46.597Z,5.42
2023-01-10T16:39:15.899Z,5.37
2023-01-10T16:42:04.968Z,5.38
2023-01-10T16:44:33.409Z,5.40
2023-01-10T16:47:00.400Z,5.39
2023-01-10T16:49:27.246Z,5.38
2023-01-10T16:51:55.310Z,5.41
2023-01-10T16:54:25.445Z,5.39
2023-01-10T16:56:52.236Z,5.38
2023-01-10T16:59:20.299Z,5.34
2023-01-10T17:01:51.368Z,5.39
2023-01-10T17:04:24.369Z,5.30
2023-01-10T17:06:50.997Z,5.36
2023-01-10T17:09:26.947Z,5.31
2023-01-10T17:12:01.753Z,5.33
2023-01-10T17:14:30.131Z,5.29
2023-01-10T17:16:56.584Z,5.32
2023-01-10T17:19:23.057Z,5.33
2023-01-10T17:21:50.727Z,5.35
2023-01-10T17:24:17.532Z,5.34
2023-01-10T17:26:44.282Z,5.40
2023-01-10T17:29:10.864Z,5.38
2023-01-10T17:31:37.469Z,5.38
2023-01-10T17:34:05.137Z,5.40
2023-01-10T17:36:38.426Z,5.39
2023-01-10T17:39:06.173Z,5.44
2023-01-10T17:41:32.768Z,5.44
2023-01-10T17:43:59.213Z,5.49
2023-01-10T17:46:25.798Z,5.52
2023-01-10T17:48:52.294Z,5.50
2023-01-10T17:51:18.779Z,5.53
2023-01-10T17:53:45.307Z,5.52
2023-01-10T17:56:11.831Z,5.53
2023-01-10T17:58:38.374Z,5.56
2023-01-10T18:01:05.288Z,5.57
2023-01-10T18:03:31.859Z,5.65
2023-01-10T18:05:59.213Z,5.66
2023-01-10T18:08:26.782Z,5.66
2023-01-10T18:10:59.353Z,5.72
2023-01-10T18:13:30.037Z,5.76
2023-01-10T18:15:56.484Z,5.77
2023-01-10T18:18:25.090Z,5.86
2023-01-10T18:20:53.900Z,5.87
2023-01-10T18:23:23.368Z,5.87
2023-01-10T18:25:59.967Z,5.92
2023-01-10T18:28:40.613Z,5.99
2023-01-10T18:31:18.521Z,6.00
2023-01-10T18:33:46.740Z,5.99
2023-01-10T18:36:18.624Z,6.05
2023-01-10T18:38:46.151Z,6.09
2023-01-10T18:41:14.164Z,6.14
2023-01-10T18:43:40.831Z,6.16
2023-01-10T18:46:13.435Z,6.19
2023-01-10T18:48:40.304Z,6.21
2023-01-10T18:51:09.084Z,6.23
2023-01-10T18:53:35.675Z,6.28
2023-01-10T18:56:04.576Z,6.30
2023-01-10T18:58:34.212Z,6.31
2023-01-10T19:01:10.040Z,6.38
2023-01-10T19:03:37.031Z,6.39
2023-01-10T19:06:05.666Z,6.39
2023-01-10T19:08:32.258Z,6.42
2023-01-10T19:11:15.627Z,6.46
2023-01-10T19:13:43.978Z,6.47
2023-01-10T19:16:19.213Z,6.52
2023-01-10T19:18:57.312Z,6.55
2023-01-10T19:21:24.919Z,6.58
2023-01-10T19:23:56.410Z,6.59
2023-01-10T19:26:24.389Z,6.61
2023-01-10T19:28:51.452Z,6.62
2023-01-10T19:31:21.260Z,6.60
2023-01-10T19:33:48.384Z,6.62
2023-01-10T19:36:16.486Z,6.62
2023-01-10T19:38:45.656Z,6.65
2023-01-10T19:41:14.139Z,6.71
2023-01-10T19:43:40.830Z,6.69
2023-01-10T19:46:09.830Z,6.71
2023-01-10T19:48:38.213Z,6.72
2023-01-10T19:51:09.426Z,6.75
2023-01-10T19:53:38.393Z,6.76
2023-01-10T19:56:09.483Z,6.82
2023-01-10T19:58:37.652Z,6.80
2023-01-10T20:01:12.992Z,6.79
2023-01-10T20:03:42.198Z,6.84
2023-01-10T20:06:10.971Z,6.88
2023-01-10T20:08:37.476Z,6.89
2023-01-10T20:11:05.862Z,6.94
2023-01-10T20:13:33.826Z,6.97
2023-01-10T20:16:00.372Z,6.99
2023-01-10T20:18:27.483Z,6.99
2023-01-10T20:20:53.966Z,7.02
2023-01-10T20:23:22.537Z,7.01
2023-01-10T20:26:02.267Z,7.04
2023-01-10T20:28:30.004Z,7.02
2023-01-10T20:30:56.511Z,7.09
2023-01-10T20:33:25.417Z,7.12
2023-01-10T20:35:57.423Z,7.10
2023-01-10T20:38:25.024Z,7.14
2023-01-10T20:40:57.211Z,7.15
2023-01-10T20:43:23.807Z,7.17
2023-01-10T20:45:50.322Z,7.19
2023-01-10T20:48:16.726Z,7.20
2023-01-10T20:50:44.368Z,7.27
2023-01-10T20:53:12.142Z,7.27
2023-01-10T20:55:38.834Z,7.29
2023-01-10T20:58:05.945Z,7.31
2023-01-10T21:00:33.531Z,7.32
2023-01-10T21:03:00.474Z,7.39
2023-01-10T21:05:26.988Z,7.47
2023-01-10T21:07:53.433Z,7.47
2023-01-10T21:10:20.283Z,7.44
2023-01-10T21:12:46.730Z,7.47
2023-01-10T21:15:13.216Z,7.46
2023-01-10T21:17:41.864Z,7.47
2023-01-10T21:20:09.820Z,7.47
2023-01-10T21:22:36.808Z,7.46
2023-01-10T21:25:06.110Z,7.44
2023-01-10T21:27:32.665Z,7.42
2023-01-10T21:29:59.211Z,7.39
2023-01-10T21:32:25.736Z,7.39
2023-01-10T21:34:52.249Z,7.40
2023-01-10T21:37:18.720Z,7.40
2023-01-10T21:39:45.413Z,7.41
2023-01-10T21:42:30.745Z,7.42
2023-01-10T21:44:57.659Z,7.42
2023-01-10T21:47:24.475Z,7.44
2023-01-10T21:49:51.419Z,7.47
2023-01-10T21:52:17.991Z,7.45
2023-01-10T21:54:44.530Z,7.47
2023-01-10T21:57:11.430Z,7.48
2023-01-10T21:59:40.809Z,7.52
2023-01-10T22:02:12.059Z,7.54
2023-01-10T22:04:38.607Z,7.53
2023-01-10T22:07:05.132Z,7.58
2023-01-10T22:09:31.594Z,7.56
2023-01-10T22:11:58.191Z,7.61
2023-01-10T22:14:24.624Z,7.65
2023-01-10T22:16:51.251Z,7.69
2023-01-10T22:19:17.672Z,7.79
2023-01-10T22:21:44.115Z,7.81
2023-01-10T22:24:12.069Z,7.87
2023-01-10T22:26:38.593Z,7.87
2023-01-10T22:29:05.268Z,7.91
2023-01-10T22:31:31.759Z,7.88
2023-01-10T22:33:58.292Z,7.94
2023-01-10T22:36:24.970Z,7.94
2023-01-10T22:38:51.444Z,7.98
2023-01-10T22:41:20.314Z,8.00
2023-01-10T22:43:47.788Z,8.03
2023-01-10T22:46:16.015Z,8.01
2023-01-10T22:48:43.578Z,8.03
2023-01-10T22:51:10.203Z,8.07
2023-01-10T22:53:36.694Z,8.06
2023-01-10T22:56:05.572Z,8.11
2023-01-10T22:58:32.549Z,8.18
2023-01-10T23:00:59.145Z,8.20
2023-01-10T23:03:25.632Z,8.27
2023-01-10T23:05:56.534Z,8.29
2023-01-10T23:08:23.786Z,8.29
2023-01-10T23:10:50.525Z,8.38
2023-01-10T23:13:16.973Z,8.39
2023-01-10T23:15:43.435Z,8.37
2023-01-10T23:18:09.913Z,8.45
2023-01-10T23:20:36.565Z,8.42
2023-01-10T23:23:03.230Z,8.47
2023-01-10T23:25:29.606Z,8.46
2023-01-10T23:27:56.046Z,8.47
2023-01-10T23:30:26.566Z,8.52
2023-01-10T23:32:53.711Z,8.58
2023-01-10T23:35:20.149Z,8.66
2023-01-10T23:37:46.627Z,8.67
2023-01-10T23:40:13.363Z,8.68
2023-01-10T23:42:39.767Z,8.69
2023-01-10T23:45:06.808Z,8.67
2023-01-10T23:47:33.336Z,8.70
2023-01-10T23:49:59.776Z,8.80
2023-01-10T23:52:26.189Z,8.79
2023-01-10T23:54:53.413Z,8.80
2023-01-10T23:57:19.822Z,8.87
2023-01-10T23:59:46.293Z,8.90
